Time;durP1;ratioP1;P1;durP2;ratioP2;P2;SDS_P1;SDS_P2;PMS_P1;PMS_P2;Temp;Humidity;BMP_temperature;BMP_pressure;BME280_temperature;BME280_humidity;BME280_pressure;Samples;Min_cycle;Max_cycle;Signal;HPM_P1;HPM_P2
2022/12/18 00:01:23;;;;;;;34.17;25.83;;;;;;;-7.56;100.00;98273.13;5024052;28;20620;-72
2022/12/18 00:03:52;;;;;;;39.27;25.20;;;;;;;-7.61;100.00;98272.41;4974998;28;20694;-71
2022/12/18 00:06:21;;;;;;;41.53;25.37;;;;;;;-7.66;100.00;98271.69;5005269;28;20670;-72
2022/12/18 00:08:49;;;;;;;44.47;26.63;;;;;;;-7.52;100.00;98262.72;5024310;28;20468;-72
2022/12/18 00:11:18;;;;;;;40.43;25.63;;;;;;;-7.50;100.00;98261.81;5027605;28;20446;-72
2022/12/18 00:13:46;;;;;;;44.40;28.40;;;;;;;-7.45;100.00;98254.78;5029665;28;20458;-70
2022/12/18 00:16:16;;;;;;;49.23;30.00;;;;;;;-7.55;100.00;98255.94;4989710;28;20491;-71
2022/12/18 00:18:45;;;;;;;44.83;28.00;;;;;;;-7.59;100.00;98262.06;4973611;28;22052;-71
2022/12/18 00:21:13;;;;;;;51.20;28.23;;;;;;;-7.56;100.00;98249.13;4936101;28;21000;-71
2022/12/18 00:23:43;;;;;;;43.20;26.20;;;;;;;-7.54;100.00;98244.78;5024865;28;20471;-72
2022/12/18 00:26:12;;;;;;;43.67;25.80;;;;;;;-7.61;100.00;98250.94;4997946;28;20832;-72
2022/12/18 00:28:40;;;;;;;45.67;26.47;;;;;;;-7.53;100.00;98266.19;5029168;28;20438;-72
2022/12/18 00:31:09;;;;;;;38.27;23.60;;;;;;;-7.43;100.00;98272.75;5022742;28;20858;-72
2022/12/18 00:33:37;;;;;;;50.83;26.37;;;;;;;-7.38;100.00;98273.50;4999392;28;20498;-71
2022/12/18 00:36:09;;;;;;;36.53;24.00;;;;;;;-7.30;100.00;98280.97;4969928;28;20580;-71
2022/12/18 00:38:37;;;;;;;41.90;25.20;;;;;;;-7.53;100.00;98291.94;5026209;28;20442;-71
2022/12/18 00:41:07;;;;;;;48.23;27.70;;;;;;;-7.49;100.00;98296.97;5022082;28;20770;-71
2022/12/18 00:43:34;;;;;;;37.37;21.87;;;;;;;-7.48;100.00;98296.06;4999108;28;20540;-71
2022/12/18 00:46:02;;;;;;;40.73;24.10;;;;;;;-7.47;100.00;98304.63;5018981;28;20458;-71
2022/12/18 00:48:31;;;;;;;34.13;22.37;;;;;;;-7.44;100.00;98297.66;4998596;28;20446;-71
2022/12/18 00:50:59;;;;;;;37.93;24.13;;;;;;;-7.40;100.00;98311.28;4978636;28;20450;-72
2022/12/18 00:53:28;;;;;;;43.07;25.13;;;;;;;-7.62;100.00;98305.91;5021972;28;21043;-72
2022/12/18 00:55:56;;;;;;;40.20;23.17;;;;;;;-7.52;100.00;98302.19;5018314;28;20475;-71
2022/12/18 00:58:24;;;;;;;39.80;23.23;;;;;;;-7.67;100.00;98300.91;4999497;28;20459;-71
2022/12/18 01:00:51;;;;;;;38.47;23.93;;;;;;;-7.74;100.00;98304.53;5023804;28;20965;-71
2022/12/18 01:03:19;;;;;;;35.63;22.03;;;;;;;-7.62;100.00;98303.31;4987936;28;20516;-71
2022/12/18 01:05:47;;;;;;;37.20;22.20;;;;;;;-7.52;100.00;98299.63;5003321;28;20434;-71
2022/12/18 01:08:14;;;;;;;37.10;22.23;;;;;;;-7.48;100.00;98303.81;4991443;28;20576;-71
2022/12/18 01:10:43;;;;;;;35.73;24.10;;;;;;;-7.45;100.00;98302.84;4989212;28;21034;-72
2022/12/18 01:13:11;;;;;;;37.00;23.80;;;;;;;-7.56;100.00;98303.19;4996246;28;20504;-71
2022/12/18 01:15:39;;;;;;;33.73;22.70;;;;;;;-7.66;100.00;98306.88;5015804;28;20663;-72
2022/12/18 01:18:07;;;;;;;39.53;23.70;;;;;;;-7.82;100.00;98320.16;5024242;28;20729;-71
2022/12/18 01:20:35;;;;;;;41.73;24.17;;;;;;;-7.81;100.00;98318.44;4997118;28;20589;-71
2022/12/18 01:23:03;;;;;;;35.60;22.77;;;;;;;-7.99;100.00;98310.31;4965879;28;20520;-72
2022/12/18 01:25:30;;;;;;;36.33;22.20;;;;;;;-7.89;100.00;98311.75;5023294;28;20456;-71
2022/12/18 01:27:59;;;;;;;36.50;22.27;;;;;;;-7.82;100.00;98316.75;4998132;28;20793;-71
2022/12/18 01:30:27;;;;;;;35.13;22.23;;;;;;;-7.78;100.00;98318.34;4986577;28;20462;-69
2022/12/18 01:32:55;;;;;;;33.17;21.70;;;;;;;-7.90;100.00;98324.69;5025299;28;21114;-71
2022/12/18 01:35:22;;;;;;;32.33;20.57;;;;;;;-7.82;100.00;98332.19;4995202;28;20457;-71
2022/12/18 01:37:51;;;;;;;34.07;20.43;;;;;;;-7.75;100.00;98321.69;4966024;28;21205;-71
2022/12/18 01:40:18;;;;;;;36.90;22.33;;;;;;;-7.66;100.00;98319.75;5026294;28;20453;-71
2022/12/18 01:42:50;;;;;;;30.57;20.53;;;;;;;-7.72;100.00;98328.50;5035549;28;20434;-72
2022/12/18 01:45:28;;;;;;;33.17;21.63;;;;;;;-7.72;100.00;98323.34;5008408;28;21731;-71
2022/12/18 01:47:58;;;;;;;32.57;21.77;;;;;;;-7.80;100.00;98308.09;5023450;28;20940;-72
2022/12/18 01:50:29;;;;;;;36.70;21.07;;;;;;;-7.94;100.00;98305.91;4993400;28;20450;-71
2022/12/18 01:53:00;;;;;;;40.77;23.10;;;;;;;-7.93;100.00;98312.72;4966495;28;20534;-72
2022/12/18 01:55:30;;;;;;;37.47;20.30;;;;;;;-7.81;100.00;98328.72;5019389;28;20458;-72
2022/12/18 01:57:59;;;;;;;33.23;20.23;;;;;;;-7.93;100.00;98330.75;5029582;28;20969;-72
2022/12/18 02:00:29;;;;;;;30.30;18.83;;;;;;;-7.86;100.00;98334.84;4994929;28;20462;-72
2022/12/18 02:02:57;;;;;;;33.33;19.87;;;;;;;-8.00;100.00;98335.19;5022740;28;20445;-71
2022/12/18 02:05:34;;;;;;;38.07;20.80;;;;;;;-8.05;100.00;98329.31;5020510;28;21071;-71
2022/12/18 02:08:10;;;;;;;39.17;22.77;;;;;;;-8.34;100.00;98330.91;5001381;28;20458;-70
2022/12/18 02:10:44;;;;;;;32.57;19.63;;;;;;;-8.48;100.00;98331.25;4993100;28;21196;-71
2022/12/18 02:13:15;;;;;;;32.63;19.40;;;;;;;-8.39;100.00;98334.47;5024405;28;20841;-71
2022/12/18 02:15:51;;;;;;;34.67;20.60;;;;;;;-8.31;100.00;98342.84;4997622;28;20670;-71
2022/12/18 02:18:21;;;;;;;30.93;21.83;;;;;;;-8.25;100.00;98337.56;5027060;28;20484;-71
2022/12/18 02:20:53;;;;;;;35.07;19.80;;;;;;;-8.20;100.00;98346.00;5024590;28;20442;-71
2022/12/18 02:23:29;;;;;;;31.17;19.70;;;;;;;-8.23;100.00;98342.66;4957098;28;20493;-70
2022/12/18 02:26:20;;;;;;;34.30;20.40;;;;;;;-8.21;100.00;98346.88;5027082;28;20897;-71
2022/12/18 02:28:50;;;;;;;28.47;18.00;;;;;;;-8.30;100.00;98350.53;4965013;28;20524;-71
2022/12/18 02:31:24;;;;;;;32.70;18.53;;;;;;;-8.37;100.00;98353.28;5009846;28;20754;-71
2022/12/18 02:33:54;;;;;;;28.20;17.43;;;;;;;-8.35;100.00;98341.25;5026850;28;20464;-74
2022/12/18 02:36:23;;;;;;;32.83;20.30;;;;;;;-8.17;100.00;98351.06;4994298;28;20463;-74
2022/12/18 02:38:51;;;;;;;32.30;20.63;;;;;;;-8.16;100.00;98350.16;5028270;28;20457;-72
2022/12/18 02:41:21;;;;;;;34.67;20.67;;;;;;;-8.12;100.00;98350.94;5029001;28;20438;-72
2022/12/18 02:43:50;;;;;;;27.80;18.50;;;;;;;-8.06;100.00;98349.97;5009345;28;20555;-71
2022/12/18 02:46:29;;;;;;;33.00;20.03;;;;;;;-8.15;100.00;98357.00;4996732;28;20466;-72
2022/12/18 02:49:07;;;;;;;32.87;19.23;;;;;;;-8.13;100.00;98362.13;5024219;28;20453;-72
2022/12/18 02:51:41;;;;;;;33.93;19.43;;;;;;;-8.05;100.00;98364.50;4995852;28;20474;-72
2022/12/18 02:54:11;;;;;;;33.43;19.77;;;;;;;-8.03;100.00;98355.03;5023757;28;20454;-72
2022/12/18 02:56:44;;;;;;;31.77;18.23;;;;;;;-8.19;100.00;98354.56;5031870;28;20449;-71
2022/12/18 02:59:14;;;;;;;27.37;17.70;;;;;;;-8.20;100.00;98348.56;4970880;28;21108;-72
2022/12/18 03:01:46;;;;;;;30.37;19.30;;;;;;;-8.08;100.00;98352.56;5024750;28;20453;-72
2022/12/18 03:04:17;;;;;;;35.70;20.27;;;;;;;-8.10;100.00;98349.19;5024937;28;20467;-72
2022/12/18 03:06:48;;;;;;;29.50;18.53;;;;;;;-8.12;100.00;98326.97;4999424;28;20468;-71
2022/12/18 03:09:18;;;;;;;26.40;18.90;;;;;;;-8.09;100.00;98329.47;5024829;28;20442;-72
2022/12/18 03:14:35;;;;;;;31.43;19.33;;;;;;;-8.14;100.00;98325.28;4964092;28;20595;-72
2022/12/18 03:17:04;;;;;;;35.53;19.23;;;;;;;-8.05;100.00;98325.94;5018216;28;20486;-71
2022/12/18 03:19:34;;;;;;;31.70;19.67;;;;;;;-8.02;100.00;98323.28;5009936;28;20806;-72
2022/12/18 03:22:04;;;;;;;29.50;17.93;;;;;;;-7.83;100.00;98343.34;4994744;28;20465;-71
2022/12/18 03:24:32;;;;;;;33.60;18.80;;;;;;;-7.75;100.00;98338.88;5021695;28;20474;-71
2022/12/18 03:27:03;;;;;;;36.60;19.80;;;;;;;-7.88;100.00;98336.59;5029254;28;20434;-71
2022/12/18 03:29:36;;;;;;;31.47;18.53;;;;;;;-7.82;100.00;98342.47;4968547;28;22037;-71
2022/12/18 03:32:11;;;;;;;34.30;19.60;;;;;;;-7.78;100.00;98339.78;5020156;28;20454;-72
2022/12/18 03:34:41;;;;;;;27.33;17.87;;;;;;;-7.67;100.00;98339.50;5027491;28;20678;-71
2022/12/18 03:37:09;;;;;;;37.27;19.80;;;;;;;-7.74;100.00;98335.41;5024050;28;21011;-71
2022/12/18 03:39:38;;;;;;;30.80;19.00;;;;;;;-7.76;100.00;98335.44;5002182;28;21274;-69
2022/12/18 03:42:13;;;;;;;26.97;19.00;;;;;;;-7.69;100.00;98330.97;5029167;28;20500;-68
2022/12/18 03:44:45;;;;;;;34.03;20.47;;;;;;;-7.76;100.00;98327.72;4953498;28;21909;-70
2022/12/18 03:47:15;;;;;;;30.87;17.90;;;;;;;-7.73;100.00;98329.38;5010331;28;20466;-69
2022/12/18 03:49:49;;;;;;;25.77;17.27;;;;;;;-7.63;100.00;98320.50;5000199;28;20462;-73
2022/12/18 03:52:22;;;;;;;28.47;18.13;;;;;;;-7.61;100.00;98329.03;5019620;28;20461;-70
2022/12/18 03:54:49;;;;;;;27.10;17.80;;;;;;;-7.58;100.00;98328.94;4996562;28;20744;-72
2022/12/18 03:57:20;;;;;;;30.47;18.77;;;;;;;-7.58;100.00;98328.94;5023863;28;20925;-72
2022/12/18 03:59:51;;;;;;;28.00;18.73;;;;;;;-7.59;100.00;98323.81;4971913;28;20461;-72
2022/12/18 04:02:19;;;;;;;28.70;17.87;;;;;;;-7.46;100.00;98337.22;5020929;28;21346;-71
2022/12/18 04:04:48;;;;;;;29.60;18.50;;;;;;;-7.58;100.00;98349.53;5021130;28;20535;-70
2022/12/18 04:07:17;;;;;;;28.60;18.73;;;;;;;-7.57;100.00;98352.97;4998052;28;20466;-71
2022/12/18 04:09:45;;;;;;;29.80;18.83;;;;;;;-7.64;100.00;98357.44;4998569;28;21115;-72
2022/12/18 04:12:13;;;;;;;27.03;17.60;;;;;;;-7.62;100.00;98360.81;5027194;28;20430;-71
2022/12/18 04:14:42;;;;;;;29.17;18.50;;;;;;;-7.56;100.00;98352.09;4996547;28;20680;-72
2022/12/18 04:17:10;;;;;;;27.50;17.27;;;;;;;-7.56;100.00;98352.09;5007355;28;20454;-70
2022/12/18 04:19:39;;;;;;;23.90;17.40;;;;;;;-7.50;100.00;98338.19;5026755;28;20525;-71
2022/12/18 04:22:07;;;;;;;26.30;16.03;;;;;;;-7.61;100.00;98343.63;4993884;28;20824;-72
2022/12/18 04:24:36;;;;;;;25.50;17.63;;;;;;;-7.54;100.00;98346.88;4995944;28;20682;-71
2022/12/18 04:27:04;;;;;;;27.73;17.07;;;;;;;-7.56;100.00;98342.63;5021472;28;20480;-72
2022/12/18 04:29:33;;;;;;;23.23;16.23;;;;;;;-7.69;100.00;98349.00;5008973;28;20458;-70
2022/12/18 04:32:02;;;;;;;28.57;17.13;;;;;;;-7.66;100.00;98356.63;4986300;28;20850;-71
2022/12/18 04:34:30;;;;;;;25.17;16.40;;;;;;;-7.56;100.00;98357.25;5028553;28;20472;-71
2022/12/18 04:36:57;;;;;;;26.10;16.80;;;;;;;-7.60;100.00;98353.91;4960720;28;21120;-72
2022/12/18 04:39:25;;;;;;;26.97;16.90;;;;;;;-7.58;100.00;98371.84;5026402;28;20784;-70
2022/12/18 04:41:53;;;;;;;24.33;16.63;;;;;;;-7.58;100.00;98377.88;5025206;28;20829;-69
2022/12/18 04:44:20;;;;;;;28.80;18.10;;;;;;;-7.58;100.00;98375.28;5023182;28;20478;-70
2022/12/18 04:46:48;;;;;;;30.10;16.90;;;;;;;-7.56;100.00;98368.38;5019423;28;20467;-71
2022/12/18 04:49:17;;;;;;;24.40;16.63;;;;;;;-7.63;100.00;98371.13;5027861;28;21063;-71
2022/12/18 04:51:45;;;;;;;27.10;16.77;;;;;;;-7.66;100.00;98366.06;4988969;28;20487;-69
2022/12/18 04:54:13;;;;;;;30.30;17.43;;;;;;;-7.63;100.00;98378.84;5010400;28;20688;-69
2022/12/18 04:56:41;;;;;;;27.57;16.30;;;;;;;-7.54;100.00;98376.06;5027341;28;20553;-69
2022/12/18 04:59:08;;;;;;;30.53;18.17;;;;;;;-7.45;100.00;98373.22;5021119;28;20590;-68
2022/12/18 05:01:36;;;;;;;26.93;17.37;;;;;;;-7.44;100.00;98381.78;5027416;28;20759;-70
2022/12/18 05:04:04;;;;;;;31.03;18.27;;;;;;;-7.47;100.00;98387.88;4992260;28;20504;-70
2022/12/18 05:06:33;;;;;;;24.57;17.70;;;;;;;-7.39;100.00;98379.91;5013767;28;20466;-71
2022/12/18 05:09:01;;;;;;;29.40;18.73;;;;;;;-7.41;100.00;98371.41;4965318;28;20923;-70
2022/12/18 05:11:28;;;;;;;28.67;18.33;;;;;;;-7.46;100.00;98368.09;5016817;28;20541;-71
2022/12/18 05:13:57;;;;;;;30.43;17.53;;;;;;;-7.45;100.00;98375.81;5022598;28;20849;-70
2022/12/18 05:16:25;;;;;;;30.17;17.63;;;;;;;-7.46;100.00;98378.41;4982904;28;21192;-70
2022/12/18 05:18:52;;;;;;;29.73;19.43;;;;;;;-7.38;100.00;98376.50;5021161;28;20478;-64
2022/12/18 05:21:20;;;;;;;27.73;17.37;;;;;;;-7.23;100.00;98377.75;4997569;28;21271;-65
2022/12/18 05:23:49;;;;;;;33.40;20.52;;;;;;;-7.23;100.00;98372.63;4968787;28;20470;-72
2022/12/18 05:26:18;;;;;;;26.73;18.77;;;;;;;-7.15;100.00;98382.72;5022635;28;20215;-71
2022/12/18 05:28:46;;;;;;;30.93;18.87;;;;;;;-7.28;100.00;98383.06;5027305;28;20577;-74
2022/12/18 05:31:14;;;;;;;25.30;18.87;;;;;;;-7.18;100.00;98383.66;5020126;28;20458;-73
2022/12/18 05:33:42;;;;;;;28.80;19.17;;;;;;;-7.22;100.00;98371.72;5028177;28;20465;-73
2022/12/18 05:36:11;;;;;;;26.27;17.90;;;;;;;-7.19;100.00;98375.97;4995841;28;21213;-72
2022/12/18 05:38:39;;;;;;;27.93;17.83;;;;;;;-7.22;100.00;98369.16;5002939;28;20595;-73
2022/12/18 05:41:10;;;;;;;26.77;18.87;;;;;;;-7.24;100.00;98377.81;4957449;28;20454;-71
2022/12/18 05:43:38;;;;;;;29.13;18.50;;;;;;;-7.20;100.00;98384.56;5022251;28;20485;-72
2022/12/18 05:46:07;;;;;;;29.73;18.70;;;;;;;-7.30;100.00;98381.41;5023959;28;20550;-71
2022/12/18 05:48:35;;;;;;;36.47;24.23;;;;;;;-7.30;100.00;98389.13;5024662;28;20448;-73
2022/12/18 05:51:08;;;;;;;30.17;20.93;;;;;;;-7.30;100.00;98395.13;5023499;28;20451;-72
2022/12/18 05:53:36;;;;;;;32.77;19.23;;;;;;;-7.19;100.00;98399.13;5011121;28;20469;-73
2022/12/18 05:56:07;;;;;;;27.40;18.97;;;;;;;-7.18;100.00;98409.41;4994509;28;20446;-72
2022/12/18 05:58:36;;;;;;;26.23;18.00;;;;;;;-7.26;100.00;98421.63;5007953;28;20482;-73
2022/12/18 06:01:08;;;;;;;26.13;17.23;;;;;;;-7.26;100.00;98429.38;4999602;28;20463;-71
2022/12/18 06:03:36;;;;;;;30.67;17.53;;;;;;;-7.28;100.00;98424.28;5028767;28;20445;-75
2022/12/18 06:06:05;;;;;;;27.73;18.67;;;;;;;-7.25;100.00;98415.59;5026841;28;20503;-72
2022/12/18 06:08:32;;;;;;;34.40;23.00;;;;;;;-7.31;100.00;98413.19;5011058;28;20441;-74
2022/12/18 06:11:00;;;;;;;28.00;19.30;;;;;;;-7.25;100.00;98414.78;5005166;28;20207;-70
2022/12/18 06:13:28;;;;;;;28.87;17.33;;;;;;;-7.19;100.00;98402.56;4972609;28;20477;-69
2022/12/18 06:15:57;;;;;;;25.53;16.43;;;;;;;-7.25;100.00;98423.31;5001784;28;20461;-71
2022/12/18 06:18:25;;;;;;;24.47;17.60;;;;;;;-7.22;100.00;98420.66;5019835;28;20533;-70
2022/12/18 06:20:56;;;;;;;30.98;21.08;;;;;;;-7.25;100.00;98409.63;5015736;28;20436;-74
2022/12/18 06:23:24;;;;;;;34.08;25.08;;;;;;;-7.32;100.00;98403.78;5016271;28;20454;-71
2022/12/18 06:25:52;;;;;;;32.67;19.47;;;;;;;-7.30;100.00;98407.16;5008417;28;20307;-72
2022/12/18 06:28:20;;;;;;;28.90;17.83;;;;;;;-7.41;100.00;98413.47;4963199;28;20461;-71
2022/12/18 06:30:49;;;;;;;27.90;18.20;;;;;;;-7.38;100.00;98424.56;5016625;28;20993;-74
2022/12/18 06:33:18;;;;;;;30.57;18.07;;;;;;;-7.43;100.00;98417.81;4989341;28;20482;-73
2022/12/18 06:35:45;;;;;;;30.27;18.40;;;;;;;-7.40;100.00;98424.59;5000782;28;20977;-73
2022/12/18 06:38:13;;;;;;;32.80;18.10;;;;;;;-7.37;100.00;98426.25;5013669;28;20492;-72
2022/12/18 06:40:40;;;;;;;25.57;17.57;;;;;;;-7.30;100.00;98441.50;5002956;28;20485;-71
2022/12/18 06:43:09;;;;;;;27.30;17.30;;;;;;;-7.28;100.00;98444.88;4975562;28;20482;-71
2022/12/18 06:45:37;;;;;;;26.17;17.60;;;;;;;-7.20;100.00;98438.66;4981732;28;21020;-71
2022/12/18 06:48:05;;;;;;;28.13;17.70;;;;;;;-7.17;100.00;98438.59;5016883;28;21336;-73
2022/12/18 06:50:34;;;;;;;27.40;18.13;;;;;;;-7.11;100.00;98435.84;5032564;28;20449;-73
2022/12/18 06:53:02;;;;;;;27.07;16.77;;;;;;;-7.13;100.00;98435.88;5008959;28;20642;-73
2022/12/18 06:55:30;;;;;;;24.53;16.77;;;;;;;-7.26;100.00;98439.66;5033730;28;20450;-76
2022/12/18 06:57:58;;;;;;;25.07;17.23;;;;;;;-7.21;100.00;98445.53;5027300;28;20439;-75
2022/12/18 07:00:25;;;;;;;31.43;18.40;;;;;;;-7.28;100.00;98429.44;4994282;28;20508;-75
2022/12/18 07:02:53;;;;;;;27.47;17.67;;;;;;;-7.31;100.00;98437.25;5023920;28;20438;-75
2022/12/18 07:05:21;;;;;;;23.00;16.50;;;;;;;-7.19;100.00;98445.50;5028674;28;20434;-74
2022/12/18 07:07:50;;;;;;;33.60;23.63;;;;;;;-7.11;100.00;98448.72;5013018;28;20469;-72
2022/12/18 07:10:17;;;;;;;27.20;18.00;;;;;;;-7.11;100.00;98456.44;5027317;28;20833;-73
2022/12/18 07:12:46;;;;;;;25.97;17.87;;;;;;;-7.10;100.00;98462.44;5023509;28;20441;-72
2022/12/18 07:15:13;;;;;;;27.40;17.93;;;;;;;-7.08;100.00;98465.84;5027655;28;20450;-72
2022/12/18 07:17:41;;;;;;;23.83;16.03;;;;;;;-7.00;100.00;98466.47;4980860;28;20453;-72
2022/12/18 07:20:10;;;;;;;23.67;16.53;;;;;;;-7.00;100.00;98471.63;5022633;28;20504;-72
2022/12/18 07:22:38;;;;;;;22.23;17.33;;;;;;;-7.02;100.00;98463.09;5016376;28;20480;-73
2022/12/18 07:25:08;;;;;;;19.73;15.57;;;;;;;-7.22;100.00;98461.06;5023048;28;20485;-72
2022/12/18 07:27:36;;;;;;;25.67;15.60;;;;;;;-7.26;100.00;98460.28;5029375;28;20464;-74
2022/12/18 07:30:04;;;;;;;28.67;17.13;;;;;;;-7.37;100.00;98447.72;5031308;28;20453;-72
2022/12/18 07:32:32;;;;;;;26.43;16.77;;;;;;;-7.35;100.00;98439.94;4987723;28;20480;-75
2022/12/18 07:35:00;;;;;;;21.93;15.73;;;;;;;-7.35;100.00;98443.34;5028035;28;20470;-72
2022/12/18 07:37:27;;;;;;;24.60;16.43;;;;;;;-7.34;100.00;98437.31;5031066;28;20460;-74
2022/12/18 07:39:55;;;;;;;23.43;16.57;;;;;;;-7.28;100.00;98437.16;5012066;28;20500;-72
2022/12/18 07:42:34;;;;;;;22.13;15.60;;;;;;;-7.21;100.00;98431.81;5034182;28;20450;-71
2022/12/18 07:45:03;;;;;;;27.00;17.33;;;;;;;-7.19;100.00;98437.78;5027309;28;21224;-73
2022/12/18 07:47:32;;;;;;;25.03;16.67;;;;;;;-7.21;100.00;98432.66;5000515;28;20450;-73
2022/12/18 07:49:59;;;;;;;25.80;16.27;;;;;;;-7.27;100.00;98446.56;5028270;28;20450;-73
2022/12/18 07:52:27;;;;;;;28.13;18.10;;;;;;;-7.18;100.00;98450.63;5022234;28;20454;-74
2022/12/18 07:54:55;;;;;;;25.00;17.03;;;;;;;-7.13;100.00;98445.34;5012482;28;20485;-73
2022/12/18 07:57:24;;;;;;;27.87;18.33;;;;;;;-6.98;100.00;98460.38;5031236;28;20437;-75
2022/12/18 08:00:13;;;;;;;24.33;15.90;;;;;;;-6.90;100.00;98479.94;5019641;28;20743;-76
2022/12/18 08:02:41;;;;;;;25.20;16.97;;;;;;;-6.93;100.00;98477.44;4957765;28;25930;-75
2022/12/18 08:05:09;;;;;;;26.77;17.90;;;;;;;-6.97;100.00;98476.69;5003981;28;20465;-76
2022/12/18 08:07:37;;;;;;;23.77;18.20;;;;;;;-6.94;100.00;98483.50;5009609;28;21034;-75
2022/12/18 08:10:05;;;;;;;25.50;16.60;;;;;;;-6.85;100.00;98481.47;5019403;28;20442;-75
2022/12/18 08:12:34;;;;;;;23.33;16.70;;;;;;;-6.80;100.00;98481.38;5026335;28;21585;-75
2022/12/18 08:15:02;;;;;;;25.70;18.57;;;;;;;-6.59;100.00;98474.75;5031467;28;20776;-77
2022/12/18 08:17:31;;;;;;;32.63;20.50;;;;;;;-6.55;100.00;98483.25;5020666;28;21055;-75
2022/12/18 08:19:58;;;;;;;31.07;21.23;;;;;;;-6.47;100.00;98483.00;4991317;28;20485;-75
2022/12/18 08:22:26;;;;;;;32.10;19.73;;;;;;;-6.46;100.00;98476.94;4999644;28;20486;-75
2022/12/18 08:24:54;;;;;;;26.70;18.47;;;;;;;-6.39;100.00;98488.81;5008352;28;20523;-74
2022/12/18 08:27:22;;;;;;;28.77;17.87;;;;;;;-6.60;100.00;98483.38;5030588;28;20448;-75
2022/12/18 08:29:58;;;;;;;28.07;18.50;;;;;;;-6.52;100.00;98490.03;5030622;28;20460;-77
2022/12/18 08:32:27;;;;;;;29.57;22.83;;;;;;;-6.50;100.00;98488.25;5017477;28;20463;-75
2022/12/18 08:34:55;;;;;;;53.87;39.23;;;;;;;-6.44;100.00;98481.19;4989098;28;20466;-77
2022/12/18 08:37:22;;;;;;;25.40;19.10;;;;;;;-6.48;100.00;98492.50;5024247;28;20468;-74
2022/12/18 08:39:50;;;;;;;24.23;18.07;;;;;;;-6.53;100.00;98502.09;4981160;28;20740;-74
2022/12/18 08:45:04;;;;;;;24.70;18.83;;;;;;;-6.05;100.00;98499.81;4995373;28;20468;-75
2022/12/18 08:47:32;;;;;;;27.03;20.13;;;;;;;-6.19;100.00;98495.94;5022839;28;20745;-75
2022/12/18 08:49:59;;;;;;;31.37;18.70;;;;;;;-6.29;100.00;98494.50;4986602;28;20459;-75
2022/12/18 08:52:28;;;;;;;26.47;18.23;;;;;;;-6.32;100.00;98492.88;5022906;28;20465;-75
2022/12/18 08:54:55;;;;;;;27.87;19.70;;;;;;;-6.35;100.00;98479.22;4966701;28;20255;-73
2022/12/18 08:57:23;;;;;;;25.77;18.20;;;;;;;-6.23;100.00;98493.50;5028084;28;20445;-75
2022/12/18 08:59:51;;;;;;;25.80;17.27;;;;;;;-6.05;100.00;98489.50;5025201;28;20525;-71
2022/12/18 09:02:20;;;;;;;26.20;17.17;;;;;;;-5.80;100.00;98492.13;5005853;28;20457;-73
2022/12/18 09:04:48;;;;;;;27.37;17.90;;;;;;;-5.66;100.00;98494.25;5028045;28;20462;-70
2022/12/18 09:07:23;;;;;;;23.80;16.33;;;;;;;-5.56;100.00;98502.56;5009074;28;20460;-72
2022/12/18 09:09:51;;;;;;;24.00;16.90;;;;;;;-5.50;100.00;98502.34;4992878;28;20465;-71
2022/12/18 09:12:18;;;;;;;28.97;20.07;;;;;;;-5.29;100.00;98502.53;4998704;28;20223;-71
2022/12/18 09:14:46;;;;;;;26.37;18.10;;;;;;;-5.47;100.00;98498.81;5027224;28;20450;-73
2022/12/18 09:17:14;;;;;;;28.57;17.90;;;;;;;-5.25;100.00;98493.78;5014283;28;20215;-69
2022/12/18 09:19:43;;;;;;;22.83;18.57;;;;;;;-5.11;100.00;98501.88;5025217;28;20470;-69
2022/12/18 09:22:10;;;;;;;22.53;15.57;;;;;;;-5.63;100.00;98483.81;4987945;28;20494;-69
2022/12/18 09:24:38;;;;;;;23.80;15.37;;;;;;;-5.56;100.00;98484.47;4992623;28;21554;-71
2022/12/18 09:27:06;;;;;;;24.80;18.15;;;;;;;-5.66;100.00;98486.50;5030682;28;20937;-71
2022/12/18 09:29:34;;;;;;;27.00;18.45;;;;;;;-5.85;100.00;98492.28;5024086;28;22107;-72
2022/12/18 09:32:01;;;;;;;26.63;20.67;;;;;;;-5.61;100.00;98496.69;5014545;28;20444;-71
2022/12/18 09:34:29;;;;;;;23.47;16.93;;;;;;;-5.35;100.00;98497.53;5024576;28;20430;-71
2022/12/18 09:36:58;;;;;;;26.20;17.60;;;;;;;-5.15;100.00;98491.69;5009062;28;20462;-71
2022/12/18 09:39:26;;;;;;;28.83;20.73;;;;;;;-5.32;100.00;98493.13;5021960;28;20444;-69
2022/12/18 09:41:55;;;;;;;22.60;16.40;;;;;;;-5.30;100.00;98491.34;4987070;28;20231;-71
2022/12/18 09:44:26;;;;;;;26.45;19.13;;;;;;;-5.56;100.00;98497.38;5023834;28;20446;-70
2022/12/18 09:47:04;;;;;;;21.67;15.67;;;;;;;-5.59;100.00;98493.16;5007691;28;20734;-69
2022/12/18 09:49:34;;;;;;;26.93;16.57;;;;;;;-5.35;100.00;98476.88;5020483;28;20488;-73
2022/12/18 09:52:08;;;;;;;26.80;20.63;;;;;;;-5.46;100.00;98469.53;5021299;28;20945;-71
2022/12/18 09:54:39;;;;;;;24.88;18.17;;;;;;;-5.29;100.00;98462.03;5024209;28;20442;-73
2022/12/18 09:57:14;;;;;;;23.27;17.33;;;;;;;-4.97;100.00;98466.94;4994628;28;20216;-71
2022/12/18 09:59:43;;;;;;;22.13;16.57;;;;;;;-5.10;100.00;98459.63;5016953;28;20845;-71
2022/12/18 10:02:20;;;;;;;30.50;23.17;;;;;;;-4.77;100.00;98452.47;5000917;28;20448;-73
2022/12/18 10:04:55;;;;;;;27.00;20.80;;;;;;;-4.79;100.00;98462.84;5016196;28;20517;-69
2022/12/18 10:07:29;;;;;;;25.07;18.00;;;;;;;-4.87;100.00;98465.75;5017826;28;20204;-73
2022/12/18 10:10:03;;;;;;;21.43;15.90;;;;;;;-5.37;100.00;98466.63;5021835;28;20325;-72
2022/12/18 10:12:34;;;;;;;20.97;14.67;;;;;;;-5.53;100.00;98463.72;4982728;28;20633;-73
2022/12/18 10:15:05;;;;;;;21.27;16.13;;;;;;;-5.63;100.00;98462.34;5022652;28;20474;-73
2022/12/18 10:17:40;;;;;;;21.50;14.07;;;;;;;-5.81;100.00;98465.47;4996689;28;20464;-73
2022/12/18 10:20:13;;;;;;;22.87;14.83;;;;;;;-5.30;100.00;98460.34;5022244;28;20464;-72
2022/12/18 10:22:55;;;;;;;20.60;14.37;;;;;;;-5.00;100.00;98462.75;5024181;28;20646;-72
2022/12/18 10:25:26;;;;;;;21.37;15.63;;;;;;;-4.96;100.00;98460.88;5021277;28;20488;-71
2022/12/18 10:27:56;;;;;;;23.10;15.10;;;;;;;-5.14;100.00;98460.66;4989747;28;20211;-72
2022/12/18 10:30:24;;;;;;;19.03;12.97;;;;;;;-5.49;100.00;98444.63;5024806;28;21335;-70
2022/12/18 10:32:52;;;;;;;18.07;13.37;;;;;;;-5.54;100.00;98447.34;5005488;28;20971;-72
2022/12/18 10:35:21;;;;;;;15.67;11.57;;;;;;;-5.45;100.00;98442.78;5031678;28;20446;-70
2022/12/18 10:38:07;;;;;;;17.50;13.47;;;;;;;-5.58;100.00;98440.59;5025718;28;20454;-72
2022/12/18 10:40:50;;;;;;;16.80;12.10;;;;;;;-5.33;100.00;98429.44;5027694;28;20853;-71
2022/12/18 10:43:21;;;;;;;16.43;12.47;;;;;;;-5.53;100.00;98423.22;5023259;28;20786;-74
2022/12/18 10:46:15;;;;;;;17.27;12.27;;;;;;;-5.52;100.00;98406.81;4992780;28;20485;-72
2022/12/18 10:48:51;;;;;;;17.63;12.20;;;;;;;-5.67;100.00;98412.50;5009837;28;20537;-73
2022/12/18 10:51:24;;;;;;;19.10;12.57;;;;;;;-5.66;100.00;98416.78;5031653;28;20434;-72
2022/12/18 10:53:58;;;;;;;19.00;13.30;;;;;;;-5.55;100.00;98413.84;5027225;28;20514;-71
2022/12/18 10:56:27;;;;;;;14.97;12.03;;;;;;;-5.73;100.00;98416.13;5007948;28;22046;-70
2022/12/18 10:59:00;;;;;;;15.27;11.63;;;;;;;-5.98;100.00;98411.81;5023252;28;21174;-72
2022/12/18 11:01:29;;;;;;;20.50;13.10;;;;;;;-5.87;100.00;98420.94;4966835;28;20493;-72
2022/12/18 11:04:01;;;;;;;16.30;12.87;;;;;;;-5.66;100.00;98427.13;5019494;28;20478;-70
2022/12/18 11:06:30;;;;;;;17.53;12.97;;;;;;;-5.56;100.00;98431.06;5028796;28;20776;-71
2022/12/18 11:09:01;;;;;;;17.23;12.60;;;;;;;-5.53;100.00;98438.69;5001606;28;20454;-70
2022/12/18 11:11:33;;;;;;;18.27;13.13;;;;;;;-5.56;100.00;98433.66;5030469;28;20442;-73
2022/12/18 11:14:03;;;;;;;20.63;13.37;;;;;;;-5.26;100.00;98430.06;5032151;28;20458;-70
2022/12/18 11:16:34;;;;;;;19.67;13.23;;;;;;;-4.96;100.00;98441.06;4985143;28;20492;-73
2022/12/18 11:19:21;;;;;;;17.87;12.80;;;;;;;-4.75;100.00;98448.06;5029274;28;20200;-71
2022/12/18 11:21:49;;;;;;;19.60;14.33;;;;;;;-4.35;100.00;98449.16;5019522;28;20500;-71
2022/12/18 11:24:22;;;;;;;18.67;13.53;;;;;;;-5.00;100.00;98444.66;4998851;28;20493;-72
2022/12/18 11:26:49;;;;;;;19.57;11.57;;;;;;;-4.96;100.00;98445.38;5027473;28;20211;-70